sensor_id;sensor_type;location;lat;lon;timestamp;P1;durP1;ratioP1;P2;durP2;ratioP2
19285;SDS011;9776;50.798;6.430;2023-03-01T00:02:27;4.53;;;4.23;;
19285;SDS011;9776;50.798;6.430;2023-03-01T00:04:54;5.00;;;4.00;;
19285;SDS011;9776;50.798;6.430;2023-03-01T00:07:21;4.70;;;4.30;;
19285;SDS011;9776;50.798;6.430;2023-03-01T00:09:47;4.80;;;4.50;;
19285;SDS011;9776;50.798;6.430;2023-03-01T00:12:14;4.97;;;4.57;;
19285;SDS011;9776;50.798;6.430;2023-03-01T00:14:41;5.40;;;5.00;;
19285;SDS011;9776;50.798;6.430;2023-03-01T00:17:07;5.07;;;4.67;;
19285;SDS011;9776;50.798;6.430;2023-03-01T00:19:36;5.40;;;5.00;;
19285;SDS011;9776;50.798;6.430;2023-03-01T00:22:02;5.27;;;4.87;;
19285;SDS011;9776;50.798;6.430;2023-03-01T00:24:29;5.10;;;4.70;;
19285;SDS011;9776;50.798;6.430;2023-03-01T00:26:56;4.80;;;4.50;;
19285;SDS011;9776;50.798;6.430;2023-03-01T00:29:23;5.13;;;4.73;;
19285;SDS011;9776;50.798;6.430;2023-03-01T00:31:50;4.43;;;4.13;;
19285;SDS011;9776;50.798;6.430;2023-03-01T00:34:16;4.03;;;3.73;;
19285;SDS011;9776;50.798;6.430;2023-03-01T00:36:44;4.60;;;4.13;;
19285;SDS011;9776;50.798;6.430;2023-03-01T00:39:12;3.73;;;3.53;;
19285;SDS011;9776;50.798;6.430;2023-03-01T00:41:40;4.70;;;4.37;;
19285;SDS011;9776;50.798;6.430;2023-03-01T00:44:07;4.30;;;4.00;;
19285;SDS011;9776;50.798;6.430;2023-03-01T00:46:34;4.43;;;4.07;;
19285;SDS011;9776;50.798;6.430;2023-03-01T00:49:01;4.47;;;4.17;;
19285;SDS011;9776;50.798;6.430;2023-03-01T00:51:29;4.97;;;4.67;;
19285;SDS011;9776;50.798;6.430;2023-03-01T00:53:58;4.93;;;4.57;;
19285;SDS011;9776;50.798;6.430;2023-03-01T00:56:27;5.17;;;4.87;;
19285;SDS011;9776;50.798;6.430;2023-03-01T00:58:55;5.90;;;5.50;;
19285;SDS011;9776;50.798;6.430;2023-03-01T01:01:23;5.63;;;5.23;;
19285;SDS011;9776;50.798;6.430;2023-03-01T01:03:53;5.60;;;5.20;;
19285;SDS011;9776;50.798;6.430;2023-03-01T01:06:21;5.70;;;5.30;;
19285;SDS011;9776;50.798;6.430;2023-03-01T01:08:50;5.17;;;4.77;;
19285;SDS011;9776;50.798;6.430;2023-03-01T01:11:18;5.30;;;4.90;;
19285;SDS011;9776;50.798;6.430;2023-03-01T01:13:46;4.97;;;4.67;;
19285;SDS011;9776;50.798;6.430;2023-03-01T01:16:14;5.30;;;4.90;;
19285;SDS011;9776;50.798;6.430;2023-03-01T01:18:41;5.37;;;5.00;;
19285;SDS011;9776;50.798;6.430;2023-03-01T01:21:09;5.23;;;4.93;;
19285;SDS011;9776;50.798;6.430;2023-03-01T01:23:37;4.93;;;4.53;;
19285;SDS011;9776;50.798;6.430;2023-03-01T01:26:05;5.70;;;5.30;;
19285;SDS011;9776;50.798;6.430;2023-03-01T01:28:34;5.10;;;4.70;;
19285;SDS011;9776;50.798;6.430;2023-03-01T01:31:00;5.17;;;4.77;;
19285;SDS011;9776;50.798;6.430;2023-03-01T01:33:27;5.17;;;4.77;;
19285;SDS011;9776;50.798;6.430;2023-03-01T01:35:53;4.73;;;4.43;;
19285;SDS011;9776;50.798;6.430;2023-03-01T01:38:20;5.03;;;4.63;;
19285;SDS011;9776;50.798;6.430;2023-03-01T01:40:48;4.60;;;4.30;;
19285;SDS011;9776;50.798;6.430;2023-03-01T01:43:16;5.17;;;4.40;;
19285;SDS011;9776;50.798;6.430;2023-03-01T01:45:47;5.37;;;4.97;;
19285;SDS011;9776;50.798;6.430;2023-03-01T01:48:16;5.00;;;4.70;;
19285;SDS011;9776;50.798;6.430;2023-03-01T01:50:46;4.70;;;4.40;;
19285;SDS011;9776;50.798;6.430;2023-03-01T01:53:21;4.30;;;4.00;;
19285;SDS011;9776;50.798;6.430;2023-03-01T01:55:48;4.63;;;4.33;;
19285;SDS011;9776;50.798;6.430;2023-03-01T01:58:20;4.77;;;4.47;;
19285;SDS011;9776;50.798;6.430;2023-03-01T02:00:49;5.27;;;4.80;;
19285;SDS011;9776;50.798;6.430;2023-03-01T02:03:17;5.20;;;4.80;;
19285;SDS011;9776;50.798;6.430;2023-03-01T02:05:49;5.03;;;4.63;;
19285;SDS011;9776;50.798;6.430;2023-03-01T02:08:20;5.10;;;4.70;;
19285;SDS011;9776;50.798;6.430;2023-03-01T02:10:48;4.73;;;4.43;;
19285;SDS011;9776;50.798;6.430;2023-03-01T02:13:17;5.73;;;5.27;;
19285;SDS011;9776;50.798;6.430;2023-03-01T02:15:43;5.43;;;5.03;;
19285;SDS011;9776;50.798;6.430;2023-03-01T02:18:12;5.13;;;4.73;;
19285;SDS011;9776;50.798;6.430;2023-03-01T02:20:44;5.57;;;5.17;;
19285;SDS011;9776;50.798;6.430;2023-03-01T02:23:21;4.97;;;4.67;;
19285;SDS011;9776;50.798;6.430;2023-03-01T02:25:51;5.30;;;4.90;;
19285;SDS011;9776;50.798;6.430;2023-03-01T02:28:32;5.00;;;4.60;;
19285;SDS011;9776;50.798;6.430;2023-03-01T02:31:00;5.33;;;4.93;;
19285;SDS011;9776;50.798;6.430;2023-03-01T02:33:54;5.07;;;4.60;;
19285;SDS011;9776;50.798;6.430;2023-03-01T02:36:23;5.17;;;4.87;;
19285;SDS011;9776;50.798;6.430;2023-03-01T02:38:52;4.97;;;4.67;;
19285;SDS011;9776;50.798;6.430;2023-03-01T02:41:22;5.10;;;4.70;;
19285;SDS011;9776;50.798;6.430;2023-03-01T02:43:53;5.57;;;5.17;;
19285;SDS011;9776;50.798;6.430;2023-03-01T02:46:20;5.03;;;4.73;;
19285;SDS011;9776;50.798;6.430;2023-03-01T02:48:50;4.57;;;4.27;;
19285;SDS011;9776;50.798;6.430;2023-03-01T02:51:31;5.23;;;4.93;;
19285;SDS011;9776;50.798;6.430;2023-03-01T02:54:13;4.67;;;4.37;;
19285;SDS011;9776;50.798;6.430;2023-03-01T02:56:47;4.97;;;4.67;;
19285;SDS011;9776;50.798;6.430;2023-03-01T02:59:16;5.17;;;4.77;;
19285;SDS011;9776;50.798;6.430;2023-03-01T03:01:47;5.13;;;4.73;;
19285;SDS011;9776;50.798;6.430;2023-03-01T03:04:15;5.17;;;4.87;;
19285;SDS011;9776;50.798;6.430;2023-03-01T03:06:44;5.53;;;5.13;;
19285;SDS011;9776;50.798;6.430;2023-03-01T03:09:11;5.13;;;4.83;;
19285;SDS011;9776;50.798;6.430;2023-03-01T03:11:39;5.10;;;4.70;;
19285;SDS011;9776;50.798;6.430;2023-03-01T03:14:06;5.27;;;4.87;;
19285;SDS011;9776;50.798;6.430;2023-03-01T03:16:39;5.37;;;5.00;;
19285;SDS011;9776;50.798;6.430;2023-03-01T03:19:06;5.00;;;4.60;;
19285;SDS011;9776;50.798;6.430;2023-03-01T03:21:33;4.87;;;4.50;;
19285;SDS011;9776;50.798;6.430;2023-03-01T03:24:00;5.40;;;4.90;;
19285;SDS011;9776;50.798;6.430;2023-03-01T03:26:27;5.60;;;5.20;;
19285;SDS011;9776;50.798;6.430;2023-03-01T03:28:53;5.43;;;4.93;;
19285;SDS011;9776;50.798;6.430;2023-03-01T03:31:20;5.87;;;5.40;;
19285;SDS011;9776;50.798;6.430;2023-03-01T03:33:48;5.20;;;4.80;;
19285;SDS011;9776;50.798;6.430;2023-03-01T03:36:15;5.33;;;4.93;;
19285;SDS011;9776;50.798;6.430;2023-03-01T03:38:42;5.67;;;5.27;;
19285;SDS011;9776;50.798;6.430;2023-03-01T03:41:09;5.20;;;4.80;;
19285;SDS011;9776;50.798;6.430;2023-03-01T03:43:37;5.13;;;4.83;;
19285;SDS011;9776;50.798;6.430;2023-03-01T03:46:04;5.33;;;4.93;;
19285;SDS011;9776;50.798;6.430;2023-03-01T03:48:32;5.67;;;5.27;;
19285;SDS011;9776;50.798;6.430;2023-03-01T03:51:01;5.30;;;4.80;;
19285;SDS011;9776;50.798;6.430;2023-03-01T03:53:30;5.20;;;4.80;;
19285;SDS011;9776;50.798;6.430;2023-03-01T03:55:57;5.80;;;5.40;;
19285;SDS011;9776;50.798;6.430;2023-03-01T03:58:24;5.20;;;4.90;;
19285;SDS011;9776;50.798;6.430;2023-03-01T04:00:52;5.57;;;5.20;;
19285;SDS011;9776;50.798;6.430;2023-03-01T04:03:21;5.77;;;5.37;;
19285;SDS011;9776;50.798;6.430;2023-03-01T04:05:48;5.40;;;5.00;;
19285;SDS011;9776;50.798;6.430;2023-03-01T04:08:17;5.20;;;4.90;;
19285;SDS011;9776;50.798;6.430;2023-03-01T04:10:46;5.37;;;4.97;;
19285;SDS011;9776;50.798;6.430;2023-03-01T04:13:15;4.70;;;4.40;;
19285;SDS011;9776;50.798;6.430;2023-03-01T04:15:44;5.30;;;4.90;;
19285;SDS011;9776;50.798;6.430;2023-03-01T04:18:11;5.80;;;5.40;;
19285;SDS011;9776;50.798;6.430;2023-03-01T04:20:39;5.87;;;5.37;;
19285;SDS011;9776;50.798;6.430;2023-03-01T04:23:07;5.20;;;4.80;;
19285;SDS011;9776;50.798;6.430;2023-03-01T04:25:40;5.10;;;4.80;;
19285;SDS011;9776;50.798;6.430;2023-03-01T04:28:08;6.20;;;5.70;;
19285;SDS011;9776;50.798;6.430;2023-03-01T04:30:35;4.90;;;4.60;;
19285;SDS011;9776;50.798;6.430;2023-03-01T04:33:03;5.27;;;4.87;;
19285;SDS011;9776;50.798;6.430;2023-03-01T04:35:30;5.47;;;5.07;;
19285;SDS011;9776;50.798;6.430;2023-03-01T04:37:57;5.20;;;4.80;;
19285;SDS011;9776;50.798;6.430;2023-03-01T04:40:24;6.03;;;5.53;;
19285;SDS011;9776;50.798;6.430;2023-03-01T04:42:52;5.57;;;5.17;;
19285;SDS011;9776;50.798;6.430;2023-03-01T04:45:19;6.10;;;5.60;;
19285;SDS011;9776;50.798;6.430;2023-03-01T04:47:46;5.93;;;5.53;;
19285;SDS011;9776;50.798;6.430;2023-03-01T04:50:13;5.73;;;5.33;;
19285;SDS011;9776;50.798;6.430;2023-03-01T04:52:42;5.60;;;5.20;;
19285;SDS011;9776;50.798;6.430;2023-03-01T04:55:09;5.60;;;5.20;;
19285;SDS011;9776;50.798;6.430;2023-03-01T04:57:37;5.90;;;5.40;;
19285;SDS011;9776;50.798;6.430;2023-03-01T05:00:06;5.40;;;5.00;;
19285;SDS011;9776;50.798;6.430;2023-03-01T05:02:45;5.60;;;5.20;;
19285;SDS011;9776;50.798;6.430;2023-03-01T05:05:13;5.30;;;4.97;;
19285;SDS011;9776;50.798;6.430;2023-03-01T05:07:40;5.73;;;5.33;;
19285;SDS011;9776;50.798;6.430;2023-03-01T05:10:07;5.87;;;5.37;;
19285;SDS011;9776;50.798;6.430;2023-03-01T05:12:35;6.07;;;5.67;;
19285;SDS011;9776;50.798;6.430;2023-03-01T05:15:02;6.00;;;5.50;;
19285;SDS011;9776;50.798;6.430;2023-03-01T05:17:33;5.60;;;5.20;;
19285;SDS011;9776;50.798;6.430;2023-03-01T05:20:01;5.97;;;5.57;;
19285;SDS011;9776;50.798;6.430;2023-03-01T05:22:31;5.50;;;5.10;;
19285;SDS011;9776;50.798;6.430;2023-03-01T05:24:58;6.37;;;5.87;;
19285;SDS011;9776;50.798;6.430;2023-03-01T05:27:25;5.90;;;5.40;;
19285;SDS011;9776;50.798;6.430;2023-03-01T05:29:51;6.10;;;5.50;;
19285;SDS011;9776;50.798;6.430;2023-03-01T05:32:18;5.40;;;5.00;;
19285;SDS011;9776;50.798;6.430;2023-03-01T05:34:46;5.50;;;5.10;;
19285;SDS011;9776;50.798;6.430;2023-03-01T05:37:13;5.73;;;5.33;;
19285;SDS011;9776;50.798;6.430;2023-03-01T05:39:40;5.70;;;5.30;;
19285;SDS011;9776;50.798;6.430;2023-03-01T05:42:09;5.60;;;5.10;;
19285;SDS011;9776;50.798;6.430;2023-03-01T05:44:37;5.93;;;5.50;;
19285;SDS011;9776;50.798;6.430;2023-03-01T05:47:04;5.60;;;5.20;;
19285;SDS011;9776;50.798;6.430;2023-03-01T05:49:31;6.50;;;6.00;;
19285;SDS011;9776;50.798;6.430;2023-03-01T05:51:59;6.67;;;6.17;;
19285;SDS011;9776;50.798;6.430;2023-03-01T05:54:26;5.83;;;5.43;;
19285;SDS011;9776;50.798;6.430;2023-03-01T05:56:52;6.03;;;5.63;;
19285;SDS011;9776;50.798;6.430;2023-03-01T05:59:19;6.40;;;5.90;;
19285;SDS011;9776;50.798;6.430;2023-03-01T06:01:45;6.27;;;5.77;;
19285;SDS011;9776;50.798;6.430;2023-03-01T06:04:12;6.03;;;5.63;;
19285;SDS011;9776;50.798;6.430;2023-03-01T06:06:39;5.80;;;5.40;;
19285;SDS011;9776;50.798;6.430;2023-03-01T06:09:07;6.33;;;5.83;;
19285;SDS011;9776;50.798;6.430;2023-03-01T06:11:35;6.10;;;5.70;;
19285;SDS011;9776;50.798;6.430;2023-03-01T06:14:02;6.67;;;6.17;;
19285;SDS011;9776;50.798;6.430;2023-03-01T06:16:31;5.70;;;5.30;;
19285;SDS011;9776;50.798;6.430;2023-03-01T06:18:57;5.73;;;5.33;;
19285;SDS011;9776;50.798;6.430;2023-03-01T06:21:24;5.87;;;5.47;;
19285;SDS011;9776;50.798;6.430;2023-03-01T06:23:51;6.50;;;6.00;;
19285;SDS011;9776;50.798;6.430;2023-03-01T06:26:19;6.40;;;5.90;;
19285;SDS011;9776;50.798;6.430;2023-03-01T06:28:45;6.03;;;5.53;;
19285;SDS011;9776;50.798;6.430;2023-03-01T06:31:12;5.40;;;5.00;;
19285;SDS011;9776;50.798;6.430;2023-03-01T06:33:39;6.00;;;5.60;;
19285;SDS011;9776;50.798;6.430;2023-03-01T06:36:06;6.10;;;5.63;;
19285;SDS011;9776;50.798;6.430;2023-03-01T06:38:34;6.00;;;5.57;;
19285;SDS011;9776;50.798;6.430;2023-03-01T06:41:01;6.03;;;5.53;;
19285;SDS011;9776;50.798;6.430;2023-03-01T06:43:29;5.87;;;5.47;;
19285;SDS011;9776;50.798;6.430;2023-03-01T06:45:55;6.50;;;6.00;;
19285;SDS011;9776;50.798;6.430;2023-03-01T06:48:22;6.23;;;5.63;;
19285;SDS011;9776;50.798;6.430;2023-03-01T06:50:49;6.87;;;6.37;;
19285;SDS011;9776;50.798;6.430;2023-03-01T06:53:15;7.00;;;6.50;;
19285;SDS011;9776;50.798;6.430;2023-03-01T06:55:42;6.90;;;6.33;;
19285;SDS011;9776;50.798;6.430;2023-03-01T06:58:09;6.23;;;5.83;;
19285;SDS011;9776;50.798;6.430;2023-03-01T07:00:37;6.00;;;5.50;;
19285;SDS011;9776;50.798;6.430;2023-03-01T07:03:05;6.70;;;6.17;;
19285;SDS011;9776;50.798;6.430;2023-03-01T07:05:32;5.80;;;5.40;;
19285;SDS011;9776;50.798;6.430;2023-03-01T07:07:59;5.87;;;5.47;;
19285;SDS011;9776;50.798;6.430;2023-03-01T07:10:26;6.07;;;5.60;;
19285;SDS011;9776;50.798;6.430;2023-03-01T07:12:54;6.50;;;6.07;;
19285;SDS011;9776;50.798;6.430;2023-03-01T07:15:21;6.03;;;5.63;;
19285;SDS011;9776;50.798;6.430;2023-03-01T07:17:49;6.60;;;6.10;;
19285;SDS011;9776;50.798;6.430;2023-03-01T07:20:16;6.90;;;6.40;;
19285;SDS011;9776;50.798;6.430;2023-03-01T07:22:44;6.83;;;6.33;;
19285;SDS011;9776;50.798;6.430;2023-03-01T07:25:10;6.40;;;6.00;;
19285;SDS011;9776;50.798;6.430;2023-03-01T07:27:37;6.83;;;6.33;;
19285;SDS011;9776;50.798;6.430;2023-03-01T07:30:04;6.13;;;5.73;;
19285;SDS011;9776;50.798;6.430;2023-03-01T07:32:32;6.20;;;5.80;;
19285;SDS011;9776;50.798;6.430;2023-03-01T07:35:00;6.50;;;6.00;;
19285;SDS011;9776;50.798;6.430;2023-03-01T07:37:27;6.70;;;6.10;;
19285;SDS011;9776;50.798;6.430;2023-03-01T07:39:53;6.73;;;6.23;;
19285;SDS011;9776;50.798;6.430;2023-03-01T07:42:20;6.30;;;5.90;;
19285;SDS011;9776;50.798;6.430;2023-03-01T07:44:47;6.93;;;6.43;;
19285;SDS011;9776;50.798;6.430;2023-03-01T07:47:13;6.70;;;6.10;;
19285;SDS011;9776;50.798;6.430;2023-03-01T07:49:40;7.70;;;7.10;;
19285;SDS011;9776;50.798;6.430;2023-03-01T07:52:08;7.03;;;6.43;;
19285;SDS011;9776;50.798;6.430;2023-03-01T07:54:36;6.63;;;6.13;;
19285;SDS011;9776;50.798;6.430;2023-03-01T07:57:02;7.00;;;6.50;;
19285;SDS011;9776;50.798;6.430;2023-03-01T07:59:29;7.10;;;6.50;;
19285;SDS011;9776;50.798;6.430;2023-03-01T08:01:56;7.70;;;7.13;;
19285;SDS011;9776;50.798;6.430;2023-03-01T08:04:23;7.50;;;6.90;;
19285;SDS011;9776;50.798;6.430;2023-03-01T08:06:51;7.47;;;6.97;;
19285;SDS011;9776;50.798;6.430;2023-03-01T08:09:19;7.50;;;6.90;;
19285;SDS011;9776;50.798;6.430;2023-03-01T08:11:47;7.60;;;7.00;;
19285;SDS011;9776;50.798;6.430;2023-03-01T08:14:13;7.87;;;7.27;;
19285;SDS011;9776;50.798;6.430;2023-03-01T08:16:40;7.43;;;6.83;;
19285;SDS011;9776;50.798;6.430;2023-03-01T08:19:07;7.53;;;6.97;;
19285;SDS011;9776;50.798;6.430;2023-03-01T08:21:34;7.10;;;6.57;;
19285;SDS011;9776;50.798;6.430;2023-03-01T08:24:01;7.67;;;7.07;;
19285;SDS011;9776;50.798;6.430;2023-03-01T08:26:30;7.20;;;6.63;;
19285;SDS011;9776;50.798;6.430;2023-03-01T08:28:56;7.40;;;6.80;;
19285;SDS011;9776;50.798;6.430;2023-03-01T08:31:23;7.27;;;6.77;;
19285;SDS011;9776;50.798;6.430;2023-03-01T08:33:52;7.53;;;6.80;;
19285;SDS011;9776;50.798;6.430;2023-03-01T08:36:21;9.17;;;6.93;;
19285;SDS011;9776;50.798;6.430;2023-03-01T08:38:49;7.07;;;6.57;;
19285;SDS011;9776;50.798;6.430;2023-03-01T08:41:15;7.60;;;7.00;;
19285;SDS011;9776;50.798;6.430;2023-03-01T08:43:44;7.70;;;7.10;;
19285;SDS011;9776;50.798;6.430;2023-03-01T08:48:50;7.47;;;6.87;;
19285;SDS011;9776;50.798;6.430;2023-03-01T08:51:18;7.30;;;6.70;;
19285;SDS011;9776;50.798;6.430;2023-03-01T08:53:45;7.03;;;6.33;;
19285;SDS011;9776;50.798;6.430;2023-03-01T08:56:12;6.93;;;6.10;;
19285;SDS011;9776;50.798;6.430;2023-03-01T08:58:39;7.60;;;6.90;;
19285;SDS011;9776;50.798;6.430;2023-03-01T09:01:11;6.90;;;6.40;;
19285;SDS011;9776;50.798;6.430;2023-03-01T09:03:39;7.27;;;6.67;;
19285;SDS011;9776;50.798;6.430;2023-03-01T09:06:06;7.13;;;6.53;;
19285;SDS011;9776;50.798;6.430;2023-03-01T09:08:34;7.20;;;6.70;;
19285;SDS011;9776;50.798;6.430;2023-03-01T09:11:01;6.90;;;6.30;;
19285;SDS011;9776;50.798;6.430;2023-03-01T09:13:28;6.97;;;6.30;;
19285;SDS011;9776;50.798;6.430;2023-03-01T09:15:56;7.33;;;6.73;;
19285;SDS011;9776;50.798;6.430;2023-03-01T09:18:24;6.77;;;6.20;;
19285;SDS011;9776;50.798;6.430;2023-03-01T09:20:51;7.20;;;6.50;;
19285;SDS011;9776;50.798;6.430;2023-03-01T09:23:19;7.17;;;6.57;;
19285;SDS011;9776;50.798;6.430;2023-03-01T09:25:46;6.57;;;6.07;;
19285;SDS011;9776;50.798;6.430;2023-03-01T09:28:13;7.73;;;7.13;;
19285;SDS011;9776;50.798;6.430;2023-03-01T09:30:39;6.90;;;6.30;;
19285;SDS011;9776;50.798;6.430;2023-03-01T09:33:06;6.83;;;6.33;;
19285;SDS011;9776;50.798;6.430;2023-03-01T09:35:37;6.60;;;6.10;;
19285;SDS011;9776;50.798;6.430;2023-03-01T09:38:10;6.40;;;5.90;;
19285;SDS011;9776;50.798;6.430;2023-03-01T09:40:41;6.77;;;6.27;;
19285;SDS011;9776;50.798;6.430;2023-03-01T09:43:13;6.95;;;6.35;;
19285;SDS011;9776;50.798;6.430;2023-03-01T09:45:46;6.45;;;5.95;;
19285;SDS011;9776;50.798;6.430;2023-03-01T09:48:16;5.88;;;5.40;;
19285;SDS011;9776;50.798;6.430;2023-03-01T09:50:48;5.88;;;5.38;;
19285;SDS011;9776;50.798;6.430;2023-03-01T09:53:16;5.75;;;5.35;;
19285;SDS011;9776;50.798;6.430;2023-03-01T09:55:45;6.20;;;5.65;;
19285;SDS011;9776;50.798;6.430;2023-03-01T09:58:26;5.97;;;5.35;;
19285;SDS011;9776;50.798;6.430;2023-03-01T10:01:09;5.72;;;5.32;;
19285;SDS011;9776;50.798;6.430;2023-03-01T10:03:52;6.38;;;5.93;;
19285;SDS011;9776;50.798;6.430;2023-03-01T10:06:32;5.93;;;5.53;;
19285;SDS011;9776;50.798;6.430;2023-03-01T10:09:00;6.18;;;5.78;;
19285;SDS011;9776;50.798;6.430;2023-03-01T10:11:31;6.03;;;5.15;;
19285;SDS011;9776;50.798;6.430;2023-03-01T10:14:03;6.20;;;5.47;;
19285;SDS011;9776;50.798;6.430;2023-03-01T10:16:36;5.20;;;4.90;;
19285;SDS011;9776;50.798;6.430;2023-03-01T10:19:09;5.10;;;4.70;;
19285;SDS011;9776;50.798;6.430;2023-03-01T10:21:43;5.68;;;5.22;;
19285;SDS011;9776;50.798;6.430;2023-03-01T10:24:12;5.18;;;4.78;;
19285;SDS011;9776;50.798;6.430;2023-03-01T10:26:43;5.28;;;4.88;;
19285;SDS011;9776;50.798;6.430;2023-03-01T10:29:14;5.28;;;4.85;;
19285;SDS011;9776;50.798;6.430;2023-03-01T10:31:43;5.20;;;4.80;;
19285;SDS011;9776;50.798;6.430;2023-03-01T10:34:11;6.00;;;5.50;;
19285;SDS011;9776;50.798;6.430;2023-03-01T10:36:47;4.90;;;4.50;;
19285;SDS011;9776;50.798;6.430;2023-03-01T10:39:16;5.07;;;4.68;;
19285;SDS011;9776;50.798;6.430;2023-03-01T10:41:52;5.50;;;5.10;;
19285;SDS011;9776;50.798;6.430;2023-03-01T10:44:36;5.28;;;4.88;;
19285;SDS011;9776;50.798;6.430;2023-03-01T10:47:13;4.78;;;4.47;;
19285;SDS011;9776;50.798;6.430;2023-03-01T10:49:51;6.07;;;5.60;;
19285;SDS011;9776;50.798;6.430;2023-03-01T10:52:28;5.10;;;4.70;;
19285;SDS011;9776;50.798;6.430;2023-03-01T10:54:59;5.78;;;5.38;;
19285;SDS011;9776;50.798;6.430;2023-03-01T10:57:32;5.35;;;4.95;;
19285;SDS011;9776;50.798;6.430;2023-03-01T11:02:47;5.60;;;5.03;;
19285;SDS011;9776;50.798;6.430;2023-03-01T11:05:18;4.80;;;4.40;;
19285;SDS011;9776;50.798;6.430;2023-03-01T11:07:50;5.40;;;5.00;;
19285;SDS011;9776;50.798;6.430;2023-03-01T11:10:19;4.85;;;4.40;;
19285;SDS011;9776;50.798;6.430;2023-03-01T11:12:47;5.00;;;4.68;;
19285;SDS011;9776;50.798;6.430;2023-03-01T11:15:25;4.50;;;4.20;;
19285;SDS011;9776;50.798;6.430;2023-03-01T11:17:53;5.50;;;5.10;;
19285;SDS011;9776;50.798;6.430;2023-03-01T11:20:29;4.97;;;4.57;;
19285;SDS011;9776;50.798;6.430;2023-03-01T11:23:01;4.82;;;4.43;;
19285;SDS011;9776;50.798;6.430;2023-03-01T11:25:31;4.82;;;4.53;;
19285;SDS011;9776;50.798;6.430;2023-03-01T11:28:02;4.80;;;4.40;;
19285;SDS011;9776;50.798;6.430;2023-03-01T11:30:31;5.30;;;4.90;;
19285;SDS011;9776;50.798;6.430;2023-03-01T11:33:03;4.57;;;4.28;;
19285;SDS011;9776;50.798;6.430;2023-03-01T11:35:41;4.43;;;4.13;;
19285;SDS011;9776;50.798;6.430;2023-03-01T11:38:16;4.40;;;4.10;;
19285;SDS011;9776;50.798;6.430;2023-03-01T11:40:48;4.15;;;3.85;;
19285;SDS011;9776;50.798;6.430;2023-03-01T11:43:20;4.82;;;4.43;;
19285;SDS011;9776;50.798;6.430;2023-03-01T11:45:55;4.65;;;4.25;;
19285;SDS011;9776;50.798;6.430;2023-03-01T11:48:40;4.45;;;4.05;;
19285;SDS011;9776;50.798;6.430;2023-03-01T11:51:19;4.60;;;4.00;;
19285;SDS011;9776;50.798;6.430;2023-03-01T11:54:04;4.03;;;3.72;;
19285;SDS011;9776;50.798;6.430;2023-03-01T11:56:40;4.10;;;3.75;;
19285;SDS011;9776;50.798;6.430;2023-03-01T11:59:19;4.00;;;3.70;;
19285;SDS011;9776;50.798;6.430;2023-03-01T12:02:17;4.07;;;3.78;;
19285;SDS011;9776;50.798;6.430;2023-03-01T12:05:21;3.95;;;3.65;;
19285;SDS011;9776;50.798;6.430;2023-03-01T12:08:04;4.40;;;4.00;;
19285;SDS011;9776;50.798;6.430;2023-03-01T12:10:41;4.20;;;3.90;;
19285;SDS011;9776;50.798;6.430;2023-03-01T12:13:23;4.50;;;4.10;;
19285;SDS011;9776;50.798;6.430;2023-03-01T12:16:11;3.80;;;3.42;;
19285;SDS011;9776;50.798;6.430;2023-03-01T12:18:56;4.30;;;4.00;;
19285;SDS011;9776;50.798;6.430;2023-03-01T12:21:48;3.90;;;3.60;;
19285;SDS011;9776;50.798;6.430;2023-03-01T12:24:36;4.45;;;4.05;;
19285;SDS011;9776;50.798;6.430;2023-03-01T12:27:20;3.70;;;3.40;;
19285;SDS011;9776;50.798;6.430;2023-03-01T12:30:03;3.72;;;3.50;;
19285;SDS011;9776;50.798;6.430;2023-03-01T12:32:46;4.00;;;3.70;;
19285;SDS011;9776;50.798;6.430;2023-03-01T12:38:25;4.00;;;3.70;;
19285;SDS011;9776;50.798;6.430;2023-03-01T12:41:11;4.05;;;3.75;;
19285;SDS011;9776;50.798;6.430;2023-03-01T12:44:01;3.38;;;3.17;;
19285;SDS011;9776;50.798;6.430;2023-03-01T12:46:38;3.60;;;3.40;;
19285;SDS011;9776;50.798;6.430;2023-03-01T12:49:13;3.90;;;3.60;;
19285;SDS011;9776;50.798;6.430;2023-03-01T12:51:43;4.13;;;3.80;;
19285;SDS011;9776;50.798;6.430;2023-03-01T12:54:16;3.78;;;3.58;;
19285;SDS011;9776;50.798;6.430;2023-03-01T12:56:51;4.13;;;3.83;;
19285;SDS011;9776;50.798;6.430;2023-03-01T12:59:21;3.85;;;3.63;;
19285;SDS011;9776;50.798;6.430;2023-03-01T13:01:53;4.00;;;3.80;;
19285;SDS011;9776;50.798;6.430;2023-03-01T13:04:29;3.72;;;3.53;;
19285;SDS011;9776;50.798;6.430;2023-03-01T13:07:06;4.07;;;3.70;;
19285;SDS011;9776;50.798;6.430;2023-03-01T13:09:43;3.88;;;3.58;;
19285;SDS011;9776;50.798;6.430;2023-03-01T13:15:27;3.40;;;3.20;;
19285;SDS011;9776;50.798;6.430;2023-03-01T13:17:56;4.40;;;3.30;;
19285;SDS011;9776;50.798;6.430;2023-03-01T13:20:25;4.60;;;3.33;;
19285;SDS011;9776;50.798;6.430;2023-03-01T13:23:06;3.85;;;3.55;;
19285;SDS011;9776;50.798;6.430;2023-03-01T13:28:41;3.30;;;3.10;;
19285;SDS011;9776;50.798;6.430;2023-03-01T13:37:28;3.35;;;3.05;;
19285;SDS011;9776;50.798;6.430;2023-03-01T13:40:01;3.42;;;3.22;;
19285;SDS011;9776;50.798;6.430;2023-03-01T13:42:32;3.50;;;3.30;;
19285;SDS011;9776;50.798;6.430;2023-03-01T13:45:03;3.53;;;3.33;;
19285;SDS011;9776;50.798;6.430;2023-03-01T13:47:32;4.00;;;3.70;;
19285;SDS011;9776;50.798;6.430;2023-03-01T13:50:04;3.92;;;3.63;;
19285;SDS011;9776;50.798;6.430;2023-03-01T13:52:36;3.40;;;3.10;;
19285;SDS011;9776;50.798;6.430;2023-03-01T13:55:06;5.00;;;3.40;;
19285;SDS011;9776;50.798;6.430;2023-03-01T13:57:44;3.40;;;3.20;;
19285;SDS011;9776;50.798;6.430;2023-03-01T14:00:24;3.42;;;3.13;;
19285;SDS011;9776;50.798;6.430;2023-03-01T14:03:03;3.47;;;3.17;;
19285;SDS011;9776;50.798;6.430;2023-03-01T14:05:33;4.10;;;3.17;;
19285;SDS011;9776;50.798;6.430;2023-03-01T14:08:01;3.67;;;3.13;;
19285;SDS011;9776;50.798;6.430;2023-03-01T14:10:28;4.15;;;3.85;;
19285;SDS011;9776;50.798;6.430;2023-03-01T14:13:06;3.80;;;3.25;;
19285;SDS011;9776;50.798;6.430;2023-03-01T14:15:49;3.70;;;3.40;;
19285;SDS011;9776;50.798;6.430;2023-03-01T14:18:29;4.20;;;3.90;;
19285;SDS011;9776;50.798;6.430;2023-03-01T14:21:08;4.57;;;3.90;;
19285;SDS011;9776;50.798;6.430;2023-03-01T14:23:37;4.53;;;4.13;;
19285;SDS011;9776;50.798;6.430;2023-03-01T14:26:07;4.22;;;3.92;;
19285;SDS011;9776;50.798;6.430;2023-03-01T14:28:48;4.75;;;4.40;;
19285;SDS011;9776;50.798;6.430;2023-03-01T14:34:16;4.15;;;3.83;;
19285;SDS011;9776;50.798;6.430;2023-03-01T14:36:45;5.05;;;4.65;;
19285;SDS011;9776;50.798;6.430;2023-03-01T14:39:16;5.28;;;4.88;;
19285;SDS011;9776;50.798;6.430;2023-03-01T14:41:44;5.32;;;4.75;;
19285;SDS011;9776;50.798;6.430;2023-03-01T14:44:14;5.03;;;4.63;;
19285;SDS011;9776;50.798;6.430;2023-03-01T14:46:45;4.85;;;4.55;;
19285;SDS011;9776;50.798;6.430;2023-03-01T14:49:13;5.32;;;4.93;;
19285;SDS011;9776;50.798;6.430;2023-03-01T14:51:54;5.75;;;5.35;;
19285;SDS011;9776;50.798;6.430;2023-03-01T14:54:27;4.85;;;4.45;;
19285;SDS011;9776;50.798;6.430;2023-03-01T14:56:58;5.13;;;4.72;;
19285;SDS011;9776;50.798;6.430;2023-03-01T14:59:27;4.68;;;4.18;;
19285;SDS011;9776;50.798;6.430;2023-03-01T15:01:55;4.65;;;4.32;;
19285;SDS011;9776;50.798;6.430;2023-03-01T15:04:23;4.68;;;4.30;;
19285;SDS011;9776;50.798;6.430;2023-03-01T15:06:52;4.90;;;4.50;;
19285;SDS011;9776;50.798;6.430;2023-03-01T15:09:20;4.45;;;4.10;;
19285;SDS011;9776;50.798;6.430;2023-03-01T15:11:48;5.40;;;5.00;;
19285;SDS011;9776;50.798;6.430;2023-03-01T15:14:36;5.32;;;4.82;;
19285;SDS011;9776;50.798;6.430;2023-03-01T15:17:16;4.43;;;4.13;;
19285;SDS011;9776;50.798;6.430;2023-03-01T15:19:52;5.03;;;4.63;;
19285;SDS011;9776;50.798;6.430;2023-03-01T15:22:18;4.68;;;4.28;;
19285;SDS011;9776;50.798;6.430;2023-03-01T15:24:47;5.38;;;4.88;;
19285;SDS011;9776;50.798;6.430;2023-03-01T15:27:15;4.95;;;4.55;;
19285;SDS011;9776;50.798;6.430;2023-03-01T15:29:49;4.45;;;4.15;;
19285;SDS011;9776;50.798;6.430;2023-03-01T15:32:25;4.43;;;4.03;;
19285;SDS011;9776;50.798;6.430;2023-03-01T15:34:54;4.80;;;4.40;;
19285;SDS011;9776;50.798;6.430;2023-03-01T15:37:38;4.35;;;4.05;;
19285;SDS011;9776;50.798;6.430;2023-03-01T15:40:18;3.83;;;3.53;;
19285;SDS011;9776;50.798;6.430;2023-03-01T15:42:46;4.40;;;4.00;;
19285;SDS011;9776;50.798;6.430;2023-03-01T15:45:21;4.30;;;3.90;;